Time;durP1;ratioP1;P1;durP2;ratioP2;P2;SDS_P1;SDS_P2;PMS_P1;PMS_P2;Temp;Humidity;BMP_temperature;BMP_pressure;BME280_temperature;BME280_humidity;BME280_pressure;Samples;Min_cycle;Max_cycle;Signal;HPM_P1;HPM_P2
2022/11/05 00:10:38;;;;;;;2.35;1.58;;;;;;;19.79;65.80;97600.28;2061373;28;20049;-46
2022/11/05 00:16:59;;;;;;;3.72;1.60;;;;;;;19.78;65.88;97594.09;2074916;28;20038;-46
2022/11/05 00:17:59;;;;;;;3.65;1.42;;;;;;;19.80;65.74;97591.97;2075351;28;20053;-45
2022/11/05 00:19:07;;;;;;;;;;;;;;;19.73;66.08;97588.59;2074118;28;20051;-45
2022/11/05 00:20:12;;;;;;;3.75;1.40;;;;;;;19.76;66.14;97598.09;2074496;28;19929;-45
2022/11/05 00:25:20;;;;;;;5.07;1.38;;;;;;;19.77;66.03;97591.63;2067896;28;20096;-47
2022/11/05 00:26:21;;;;;;;2.72;1.52;;;;;;;19.79;66.01;97594.91;2093698;28;20051;-45
2022/11/05 00:27:23;;;;;;;;;;;;;;;19.72;66.01;97599.59;2111763;27;20178;-45
2022/11/05 00:28:24;;;;;;;2.75;1.52;;;;;;;19.75;66.33;97604.50;2115412;27;19934;-43
2022/11/05 00:29:26;;;;;;;4.35;1.55;;;;;;;19.79;66.11;97608.38;2114381;27;20055;-45
2022/11/05 00:30:28;;;;;;;3.20;1.38;;;;;;;19.78;66.04;97604.03;2115789;27;20523;-44
2022/11/05 00:31:29;;;;;;;3.58;1.45;;;;;;;19.80;65.57;97608.13;2114138;27;20511;-45
2022/11/05 00:32:31;;;;;;;2.75;1.48;;;;;;;19.80;65.87;97608.13;2113964;27;20047;-45
2022/11/05 00:33:33;;;;;;;3.58;1.92;;;;;;;19.83;65.59;97599.56;2114341;27;20052;-44
2022/11/05 00:34:34;;;;;;;3.10;1.65;;;;;;;19.82;65.86;97611.41;2115010;27;20405;-45
2022/11/05 00:35:35;;;;;;;;;;;;;;;19.72;66.10;97611.16;2114903;27;20049;-46
2022/11/05 00:36:36;;;;;;;3.15;1.80;;;;;;;19.74;66.18;97603.69;2110796;27;19923;-44
2022/11/05 00:37:39;;;;;;;;;;;;;;;19.68;66.09;97607.31;2112542;27;20328;-46
2022/11/05 00:38:40;;;;;;;2.42;1.50;;;;;;;19.72;65.96;97611.16;2115828;27;19923;-45
2022/11/05 00:39:41;;;;;;;;;;;;;;;19.67;66.08;97607.53;2114109;27;20043;-44
2022/11/05 00:40:44;;;;;;;4.50;2.35;;;;;;;19.70;66.00;97613.28;2114007;28;19928;-54
2022/11/05 00:44:58;;;;;;;4.95;2.00;;;;;;;19.74;65.94;97605.56;2114536;27;20883;-44
2022/11/05 00:45:46;;;;;;;3.15;1.30;;;;;;;19.74;65.74;97608.25;2113480;27;20509;-45
2022/11/05 00:46:47;;;;;;;3.65;2.10;;;;;;;19.77;65.72;97610.47;2115819;27;20067;-45
2022/11/05 00:50:38;;;;;;;2.83;0.80;;;;;;;19.72;65.92;97604.97;2095580;28;20051;-45
2022/11/05 00:51:39;;;;;;;2.50;1.40;;;;;;;19.75;66.15;97608.03;2091353;28;20147;-44
2022/11/05 00:52:58;;;;;;;;;;;;;;;19.67;66.14;97596.78;2092919;27;20490;-44
2022/11/05 00:53:59;;;;;;;3.67;2.03;;;;;;;19.70;65.82;97599.84;2112905;27;19924;-45
2022/11/05 00:55:00;;;;;;;3.15;1.90;;;;;;;19.73;65.83;97601.25;2114239;27;20429;-46
2022/11/05 00:56:02;;;;;;;;;;;;;;;19.68;65.87;97606.50;2114900;27;20048;-45
2022/11/05 00:57:03;;;;;;;3.13;1.60;;;;;;;19.69;65.87;97606.25;2114626;27;19928;-46
2022/11/05 00:58:05;;;;;;;;;;;;;;;19.64;65.98;97595.38;2114442;27;20135;-44
2022/11/05 00:59:06;;;;;;;3.22;1.10;;;;;;;19.68;66.10;97604.63;2114640;27;20942;-45
2022/11/05 01:00:10;;;;;;;;;;;;;;;19.63;66.15;97612.56;2115121;27;20039;-46
2022/11/05 01:01:11;;;;;;;2.78;1.40;;;;;;;19.68;66.20;97612.69;2109747;27;19938;-44
2022/11/05 01:02:12;;;;;;;4.55;1.88;;;;;;;19.71;65.93;97614.91;2115395;27;20047;-44
2022/11/05 01:03:15;;;;;;;;;;;;;;;19.66;66.00;97614.00;2114476;27;21152;-46
2022/11/05 01:04:16;;;;;;;1.58;0.90;;;;;;;19.69;66.08;97614.31;2114351;27;19923;-46
2022/11/05 01:05:18;;;;;;;;;;;;;;;19.60;66.11;97610.34;2116739;27;20152;-47
2022/11/05 01:06:19;;;;;;;;;;;;;;;19.56;66.55;97606.50;2115047;27;20293;-44
2022/11/05 01:07:20;;;;;;;2.53;1.17;;;;;;;19.64;65.93;97608.84;2107802;27;22316;-44
2022/11/05 01:08:24;;;;;;;;;;;;;;;19.59;66.15;97606.84;2111499;27;20051;-45
2022/11/05 01:09:25;;;;;;;3.15;1.33;;;;;;;19.64;66.11;97614.22;2112122;27;19923;-46
2022/11/05 01:10:26;;;;;;;;;;;;;;;19.59;66.15;97609.53;2110095;27;20048;-44
2022/11/05 01:11:34;;;;;;;4.40;1.23;;;;;;;19.63;66.26;97610.69;2111312;27;19923;-45
2022/11/05 01:12:36;;;;;;;3.30;1.48;;;;;;;19.69;65.90;97606.25;2109896;27;20089;-44
2022/11/05 01:13:38;;;;;;;3.95;1.90;;;;;;;19.72;65.90;97611.16;2115401;27;20047;-43
2022/11/05 01:14:39;;;;;;;5.18;1.77;;;;;;;19.73;65.56;97612.81;2113833;27;20054;-46
2022/11/05 01:15:41;;;;;;;;;;;;;;;19.65;66.06;97618.53;2115281;28;20044;-46
2022/11/05 01:16:44;;;;;;;1.88;1.30;;;;;;;19.69;66.14;97613.50;2115103;27;19924;-54
2022/11/05 01:17:46;;;;;;;3.83;1.33;;;;;;;19.71;65.93;97611.41;2112020;27;20408;-46
2022/11/05 01:18:47;;;;;;;3.65;1.50;;;;;;;19.74;65.57;97614.44;2115152;27;20043;-45
2022/11/05 01:19:48;;;;;;;;;;;;;;;19.66;66.04;97616.69;2115379;27;20558;-46
2022/11/05 01:20:51;;;;;;;3.05;1.70;;;;;;;19.66;66.00;97617.50;2115277;27;20324;-44
2022/11/05 01:21:52;;;;;;;4.03;1.83;;;;;;;19.69;65.56;97617.03;2112505;27;20058;-44
2022/11/05 01:22:53;;;;;;;;;;;;;;;19.63;66.01;97623.31;2110420;27;20147;-46
2022/11/05 01:23:55;;;;;;;;;;;;;;;19.58;66.17;97618.63;2112543;27;19928;-45
2022/11/05 01:24:57;;;;;;;2.95;1.50;;;;;;;19.63;66.03;97615.25;2114196;27;19979;-48
2022/11/05 01:25:59;;;;;;;3.33;1.30;;;;;;;19.68;65.81;97620.78;2114721;27;20492;-46
2022/11/05 01:26:59;;;;;;;1.50;1.10;;;;;;;19.70;65.73;97615.16;2115296;27;20043;-44
2022/11/05 01:28:01;;;;;;;;;;;;;;;19.61;66.04;97614.66;2115794;27;20065;-45
2022/11/05 01:29:02;;;;;;;2.95;1.15;;;;;;;19.67;65.87;97610.22;2114852;27;19920;-44
2022/11/05 01:30:04;;;;;;;;;;;;;;;19.61;66.14;97603.88;2109446;27;20054;-46
2022/11/05 01:31:05;;;;;;;3.03;1.38;;;;;;;19.65;66.15;97613.16;2110913;27;20316;-47
2022/11/05 01:32:07;;;;;;;;;;;;;;;19.59;65.90;97606.03;2115418;27;20122;-44
2022/11/05 01:33:09;;;;;;;3.42;1.63;;;;;;;19.63;66.02;97607.97;2110150;27;19931;-46
2022/11/05 01:34:09;;;;;;;4.15;1.10;;;;;;;19.68;65.68;97606.50;2094978;28;20058;-45
2022/11/05 01:35:13;;;;;;;;;;;;;;;19.61;65.94;97609.28;2104496;28;20635;-44
2022/11/05 01:36:14;;;;;;;4.10;1.88;;;;;;;19.63;65.73;97607.97;2104034;28;19935;-45
2022/11/05 01:37:15;;;;;;;;;;;;;;;19.57;66.14;97602.75;2106016;28;20135;-45
2022/11/05 01:38:17;;;;;;;5.22;1.45;;;;;;;19.61;65.93;97598.50;2109318;28;19923;-45
2022/11/05 01:39:20;;;;;;;4.63;1.75;;;;;;;19.65;65.72;97599.69;2109524;28;20074;-47
2022/11/05 01:40:23;;;;;;;6.30;1.98;;;;;;;19.67;65.56;97597.63;2109642;28;20046;-44
2022/11/05 01:41:24;;;;;;;2.63;1.67;;;;;;;19.68;65.80;97593.88;2108915;27;20096;-46
2022/11/05 01:42:27;;;;;;;4.10;1.48;;;;;;;19.71;65.73;97593.41;2108874;27;20047;-47
2022/11/05 01:43:46;;;;;;;3.60;1.85;;;;;;;19.68;65.54;97593.88;2110118;28;20043;-47
2022/11/05 01:45:00;;;;;;;3.00;1.40;;;;;;;19.69;65.70;97600.88;2108783;28;20047;-49
2022/11/05 01:46:01;;;;;;;4.63;1.70;;;;;;;19.70;65.90;97599.84;2110091;28;20421;-48
2022/11/05 01:47:02;;;;;;;;;;;;;;;19.62;65.91;97602.84;2102421;27;20056;-45
2022/11/05 01:48:08;;;;;;;3.88;1.75;;;;;;;19.64;65.68;97601.56;2108325;28;21998;-48
2022/11/05 01:49:20;;;;;;;3.22;2.10;;;;;;;19.67;65.76;97605.69;2107433;28;20048;-46
2022/11/05 01:50:37;;;;;;;4.68;1.35;;;;;;;19.67;65.72;97602.16;2109397;28;20043;-46
2022/11/05 01:51:38;;;;;;;2.30;1.08;;;;;;;19.68;65.70;97612.69;2104061;28;20047;-45
2022/11/05 01:52:40;;;;;;;2.83;1.48;;;;;;;19.70;65.56;97607.91;2106209;27;20065;-47
2022/11/05 01:53:47;;;;;;;2.78;0.98;;;;;;;19.73;65.33;97617.38;2107614;28;20081;-45
2022/11/05 01:54:49;;;;;;;3.97;1.23;;;;;;;19.71;65.71;97601.47;2108699;28;20039;-50
2022/11/05 01:55:57;;;;;;;2.53;1.38;;;;;;;19.71;65.32;97609.53;2108432;28;20422;-48
2022/11/05 01:57:02;;;;;;;3.53;1.15;;;;;;;19.72;65.67;97608.47;2109393;28;20414;-45
2022/11/05 01:58:07;;;;;;;1.90;1.48;;;;;;;19.70;65.36;97613.28;2110196;28;20075;-44
2022/11/05 01:59:11;;;;;;;3.17;1.95;;;;;;;19.70;65.42;97605.22;2106991;28;20055;-47
2022/11/05 02:00:14;;;;;;;2.30;1.10;;;;;;;19.72;65.56;97608.47;2110025;28;20047;-46
2022/11/05 02:01:17;;;;;;;3.97;1.40;;;;;;;19.72;65.72;97608.47;2108900;28;20417;-47
2022/11/05 02:02:18;;;;;;;2.85;1.63;;;;;;;19.72;65.52;97604.97;2109481;28;20634;-49
2022/11/05 02:03:20;;;;;;;;;;;;;;;19.63;65.56;97604.47;2109804;28;20043;-46
2022/11/05 02:04:29;;;;;;;1.00;0.93;;;;;;;19.64;65.93;97598.88;2108846;28;19924;-45
2022/11/05 02:05:33;;;;;;;2.95;1.13;;;;;;;19.67;65.82;97602.16;2109277;28;20039;-46
2022/11/05 02:06:41;;;;;;;5.72;1.42;;;;;;;19.68;65.83;97593.88;2104231;28;20044;-47
2022/11/05 02:07:47;;;;;;;3.13;1.10;;;;;;;19.68;65.80;97598.44;2101145;28;20035;-47
2022/11/05 02:08:57;;;;;;;4.30;1.52;;;;;;;19.68;65.69;97604.63;2104940;27;20062;-46
2022/11/05 02:10:03;;;;;;;3.65;1.52;;;;;;;19.69;65.32;97598.19;2108291;28;20050;-46
2022/11/05 02:11:05;;;;;;;1.38;0.90;;;;;;;19.69;65.74;97611.63;2108442;28;20142;-47
2022/11/05 02:12:07;;;;;;;3.72;1.50;;;;;;;19.69;65.60;97610.81;2098560;28;20440;-44
2022/11/05 02:13:09;;;;;;;1.85;1.13;;;;;;;19.70;65.59;97609.78;2105959;28;20047;-44
2022/11/05 02:14:10;;;;;;;3.00;1.35;;;;;;;19.70;65.33;97615.16;2109093;28;20044;-48
2022/11/05 02:15:12;;;;;;;;;;;;;;;19.59;65.65;97614.91;2109766;28;20547;-47
2022/11/05 02:16:22;;;;;;;3.80;1.48;;;;;;;19.64;65.54;97614.22;2108067;28;19927;-47
2022/11/05 02:17:37;;;;;;;4.03;2.00;;;;;;;19.64;65.53;97615.03;2108177;28;20055;-47
2022/11/05 02:18:51;;;;;;;4.65;1.70;;;;;;;19.64;65.55;97620.41;2107680;28;20297;-49
2022/11/05 02:20:33;;;;;;;2.72;1.20;;;;;;;19.62;65.72;97619.00;2108506;28;20051;-47
2022/11/05 02:22:13;;;;;;;9.13;1.88;;;;;;;19.60;65.69;97615.72;2105036;28;20043;-49
2022/11/05 02:23:53;;;;;;;4.53;1.85;;;;;;;19.59;65.98;97617.59;2103407;28;20046;-49
2022/11/05 02:25:20;;;;;;;2.10;1.05;;;;;;;19.59;65.55;97617.59;2105586;28;20061;-45
2022/11/05 02:27:03;;;;;;;2.60;1.13;;;;;;;19.60;65.86;97613.03;2108462;28;20092;-46
2022/11/05 02:28:25;;;;;;;2.92;1.27;;;;;;;19.59;65.97;97617.59;2073402;28;20463;-48
2022/11/05 02:30:02;;;;;;;2.78;1.58;;;;;;;19.59;65.64;97622.16;2107408;28;20129;-48
2022/11/05 02:31:11;;;;;;;3.03;1.48;;;;;;;19.60;66.05;97621.09;2108328;28;20047;-44
2022/11/05 02:32:22;;;;;;;5.82;0.98;;;;;;;19.64;65.64;97624.97;2109139;28;20055;-46
2022/11/05 02:33:38;;;;;;;1.73;1.17;;;;;;;19.62;65.83;97616.31;2108096;28;20840;-47
2022/11/05 02:34:50;;;;;;;2.60;1.60;;;;;;;19.64;65.55;97614.22;2109566;27;20050;-46
2022/11/05 02:36:13;;;;;;;3.47;1.52;;;;;;;19.63;65.37;97607.97;2102739;28;20086;-45
2022/11/05 02:37:20;;;;;;;2.78;2.10;;;;;;;19.62;65.52;97611.75;2106298;28;20040;-46
2022/11/05 02:38:35;;;;;;;4.28;1.00;;;;;;;19.64;65.82;97608.84;2110130;28;20742;-44
2022/11/05 02:39:46;;;;;;;1.20;1.05;;;;;;;19.63;65.66;97612.56;2108525;28;20043;-43
2022/11/05 02:40:54;;;;;;;4.63;1.48;;;;;;;19.64;65.80;97612.34;2104166;28;20052;-49
2022/11/05 02:42:05;;;;;;;3.95;1.40;;;;;;;19.63;65.53;97616.06;2101142;28;20056;-46
2022/11/05 02:43:16;;;;;;;4.22;1.75;;;;;;;19.63;65.41;97623.31;2106541;28;20047;-45
2022/11/05 02:44:26;;;;;;;2.00;1.80;;;;;;;19.64;65.81;97622.28;2108438;28;20047;-47
2022/11/05 02:45:40;;;;;;;4.18;1.10;;;;;;;19.63;65.40;97615.25;2105031;28;20541;-49
2022/11/05 02:46:50;;;;;;;3.47;1.30;;;;;;;19.65;65.39;97621.22;2109513;28;20047;-47
2022/11/05 02:48:00;;;;;;;2.03;1.25;;;;;;;19.64;65.33;97623.09;2106302;28;20047;-49
2022/11/05 02:49:13;;;;;;;3.45;1.00;;;;;;;19.64;65.58;97622.28;2108631;27;20043;-45
2022/11/05 02:50:22;;;;;;;2.13;1.40;;;;;;;19.63;65.78;97623.31;2108216;28;20113;-47
2022/11/05 02:51:31;;;;;;;1.83;1.30;;;;;;;19.63;65.55;97629.50;2102966;28;20059;-49
2022/11/05 02:52:37;;;;;;;2.95;1.25;;;;;;;19.64;65.81;97625.78;2105082;28;20043;-50
2022/11/05 02:53:44;;;;;;;3.45;1.00;;;;;;;19.64;65.62;97630.34;2108709;27;20115;-48
2022/11/05 02:54:55;;;;;;;4.93;1.38;;;;;;;19.66;65.37;97633.63;2106298;28;20572;-47
2022/11/05 02:56:02;;;;;;;3.65;1.30;;;;;;;19.65;65.58;97623.91;2108138;28;20063;-47
2022/11/05 02:57:05;;;;;;;2.60;0.88;;;;;;;19.64;65.51;97630.34;2106236;28;20060;-49
2022/11/05 02:58:06;;;;;;;1.63;1.33;;;;;;;19.66;65.72;97633.63;2104444;28;20050;-48
2022/11/05 02:59:08;;;;;;;1.88;1.23;;;;;;;19.65;65.28;97631.97;2104871;28;20544;-46
2022/11/05 03:00:55;;;;;;;1.60;1.05;;;;;;;19.63;65.35;97642.13;2106815;28;20050;-44
2022/11/05 03:01:59;;;;;;;3.65;1.30;;;;;;;19.60;65.90;97634.53;2068412;28;20060;-47
2022/11/05 03:03:02;;;;;;;2.63;1.15;;;;;;;19.61;65.65;97637.00;2073373;28;20539;-48
2022/11/05 03:04:06;;;;;;;4.60;1.25;;;;;;;19.62;65.58;97644.03;2075140;28;20551;-47
2022/11/05 03:05:08;;;;;;;4.47;1.38;;;;;;;19.65;65.65;97645.44;2107917;27;20055;-47
2022/11/05 03:06:34;;;;;;;1.15;0.80;;;;;;;19.63;65.76;97650.22;2105654;28;20055;-46
2022/11/05 03:07:49;;;;;;;3.42;1.20;;;;;;;19.61;65.54;97647.78;2106913;28;20051;-48
2022/11/05 03:09:04;;;;;;;3.15;1.08;;;;;;;19.61;65.37;97655.00;2107763;27;20052;-44
2022/11/05 03:10:25;;;;;;;3.30;1.40;;;;;;;19.60;65.75;97656.88;2106714;28;20183;-48
2022/11/05 03:11:29;;;;;;;3.88;1.48;;;;;;;19.62;65.85;97653.97;2106254;28;20043;-47
2022/11/05 03:12:39;;;;;;;1.83;0.95;;;;;;;19.62;65.35;97653.97;2106535;28;20047;-49
2022/11/05 03:13:51;;;;;;;2.72;1.40;;;;;;;19.61;65.68;97661.22;2108642;28;20054;-47
2022/11/05 03:15:02;;;;;;;2.70;1.20;;;;;;;19.62;65.69;97656.66;2107497;28;20100;-48
2022/11/05 03:16:11;;;;;;;3.53;1.60;;;;;;;19.60;65.33;97656.88;2108789;28;20063;-44
2022/11/05 03:17:25;;;;;;;4.00;1.35;;;;;;;19.62;65.55;97651.28;2109786;28;20043;-46
2022/11/05 03:18:39;;;;;;;3.00;1.20;;;;;;;19.61;65.52;97655.84;2108701;28;20051;-51
2022/11/05 03:19:47;;;;;;;3.60;1.35;;;;;;;19.61;65.55;97660.38;2109011;27;20058;-43
2022/11/05 03:20:52;;;;;;;3.70;1.20;;;;;;;19.60;65.79;97654.19;2108842;28;20574;-47
2022/11/05 03:21:57;;;;;;;3.03;1.40;;;;;;;19.61;65.63;97657.69;2104487;28;20493;-49
2022/11/05 03:23:09;;;;;;;2.70;1.00;;;;;;;19.61;65.76;97657.69;2104690;28;20051;-47
2022/11/05 03:24:15;;;;;;;3.47;1.13;;;;;;;19.62;65.74;97656.66;2105430;28;20108;-46
2022/11/05 03:25:21;;;;;;;1.13;0.70;;;;;;;19.62;65.78;97662.03;2104637;28;20585;-48
2022/11/05 03:26:27;;;;;;;1.30;0.82;;;;;;;19.62;65.41;97665.53;2105367;28;20054;-48
2022/11/05 03:27:32;;;;;;;2.78;1.30;;;;;;;19.62;65.27;97670.09;2105454;28;20047;-48
2022/11/05 03:28:35;;;;;;;2.35;1.27;;;;;;;19.61;65.78;97668.44;2106781;28;20055;-46
2022/11/05 03:29:39;;;;;;;1.35;1.02;;;;;;;19.61;65.70;97668.44;2107256;28;20047;-48
2022/11/05 03:30:42;;;;;;;2.22;0.77;;;;;;;19.61;65.75;97669.28;2099696;28;20040;-44
2022/11/05 03:31:48;;;;;;;2.65;1.20;;;;;;;19.61;65.62;97661.22;2103335;28;20554;-46
2022/11/05 03:32:56;;;;;;;6.13;2.38;;;;;;;19.61;65.58;97669.28;2106656;28;20076;-48
2022/11/05 03:34:00;;;;;;;2.00;0.75;;;;;;;19.62;65.44;97657.47;2103517;28;20055;-49
2022/11/05 03:35:07;;;;;;;2.08;0.88;;;;;;;19.62;65.29;97659.34;2105834;28;20528;-47
2022/11/05 03:36:15;;;;;;;2.15;1.08;;;;;;;19.61;65.67;97655.00;2105917;28;20071;-50
2022/11/05 03:37:18;;;;;;;2.80;0.88;;;;;;;19.62;65.36;97662.03;2097764;28;20054;-50
2022/11/05 03:38:24;;;;;;;1.73;1.08;;;;;;;19.62;65.66;97664.72;2104423;28;20571;-48
2022/11/05 03:39:29;;;;;;;2.45;1.35;;;;;;;19.62;65.19;97664.72;2106530;28;20054;-47
2022/11/05 03:40:35;;;;;;;2.13;0.80;;;;;;;19.61;65.62;97668.44;2106667;28;20711;-46
2022/11/05 03:41:39;;;;;;;5.28;1.42;;;;;;;19.61;65.61;97669.28;2106163;28;20035;-46
2022/11/05 03:42:46;;;;;;;2.95;0.93;;;;;;;19.61;65.40;97673.81;2107005;28;20032;-47
2022/11/05 03:43:51;;;;;;;4.03;1.45;;;;;;;19.61;65.44;97679.22;2106914;28;20047;-47
2022/11/05 03:44:56;;;;;;;2.08;1.02;;;;;;;19.62;65.43;97680.88;2107941;27;20444;-50
2022/11/05 03:46:02;;;;;;;2.78;1.17;;;;;;;19.61;65.59;97684.59;2103975;28;20055;-49
2022/11/05 03:47:06;;;;;;;3.95;1.65;;;;;;;19.61;65.65;97688.13;2101962;28;20055;-46
2022/11/05 03:48:12;;;;;;;2.13;1.10;;;;;;;19.61;65.41;97684.59;2105897;28;20040;-46
2022/11/05 03:49:20;;;;;;;2.50;0.95;;;;;;;19.61;65.58;97682.75;2107751;28;20097;-48
2022/11/05 03:50:28;;;;;;;3.22;1.23;;;;;;;19.60;65.70;97688.34;2104707;28;20046;-45
2022/11/05 03:51:38;;;;;;;3.33;1.02;;;;;;;19.60;65.38;97688.34;2105826;27;20044;-46
2022/11/05 03:52:44;;;;;;;2.93;1.17;;;;;;;19.59;65.58;97692.09;2103625;28;20642;-44
2022/11/05 03:53:50;;;;;;;2.13;1.10;;;;;;;19.60;65.19;97688.34;2100020;28;20116;-44
2022/11/05 03:54:51;;;;;;;2.92;1.70;;;;;;;19.59;65.51;97687.53;2099295;28;21017;-47
2022/11/05 03:55:56;;;;;;;;;;;;;;;19.50;65.84;97685.41;2104509;28;20079;-49
2022/11/05 03:57:02;;;;;;;2.53;1.10;;;;;;;19.52;65.92;97681.44;2105803;28;20475;-44
2022/11/05 03:58:05;;;;;;;1.15;0.90;;;;;;;19.56;65.74;97687.19;2107248;28;20048;-44
2022/11/05 03:59:09;;;;;;;2.20;1.23;;;;;;;19.57;65.36;97686.13;2106441;28;20051;-49
2022/11/05 04:00:12;;;;;;;1.02;0.80;;;;;;;19.58;65.43;97688.56;2103472;28;20047;-47
2022/11/05 04:01:13;;;;;;;1.65;0.98;;;;;;;19.60;65.24;97688.34;2105099;28;20043;-48
2022/11/05 04:02:18;;;;;;;5.45;1.25;;;;;;;19.59;65.33;97690.22;2105575;28;20044;-45
2022/11/05 04:03:20;;;;;;;2.40;1.00;;;;;;;19.60;65.69;97691.84;2106382;28;20051;-50
2022/11/05 04:04:22;;;;;;;2.22;1.25;;;;;;;19.60;65.62;97693.72;2105339;28;20044;-47
2022/11/05 04:05:23;;;;;;;3.83;1.20;;;;;;;19.59;65.48;97697.47;2102948;28;20044;-48
2022/11/05 04:14:17;;;;;;;2.83;1.08;;;;;;;19.52;65.54;97708.31;2107008;28;20043;-49
2022/11/05 04:15:18;;;;;;;2.22;1.20;;;;;;;19.52;65.73;97707.50;2104951;28;20901;-43
2022/11/05 04:17:39;;;;;;;1.67;1.02;;;;;;;19.47;66.07;97715.44;2101849;28;19924;-48
2022/11/05 04:18:42;;;;;;;3.08;1.40;;;;;;;19.51;65.90;97709.38;2107168;28;20056;-46
2022/11/05 04:25:04;;;;;;;3.15;1.17;;;;;;;19.49;65.89;97722.22;2095559;28;20080;-49
2022/11/05 04:26:05;;;;;;;2.70;1.05;;;;;;;19.52;65.43;97716.38;2096532;28;20569;-43
2022/11/05 04:27:10;;;;;;;;;;;;;;;19.43;65.71;97715.91;2099632;28;20058;-45
2022/11/05 04:28:11;;;;;;;2.03;1.05;;;;;;;19.48;66.00;97717.09;2094149;28;19928;-45
2022/11/05 04:30:31;;;;;;;1.10;0.77;;;;;;;19.50;65.74;97720.34;2096895;28;20044;-47
2022/11/05 04:31:32;;;;;;;;;;;;;;;19.41;65.74;97719.88;2098924;28;20047;-45
2022/11/05 04:32:34;;;;;;;2.00;1.70;;;;;;;19.44;65.87;97716.72;2098134;28;20359;-47
2022/11/05 04:33:34;;;;;;;1.98;1.00;;;;;;;19.49;65.55;97706.09;2098238;28;20051;-50
2022/11/05 04:34:37;;;;;;;;;;;;;;;19.40;66.04;97711.00;2103079;28;20182;-49
2022/11/05 04:35:40;;;;;;;2.10;1.35;;;;;;;19.45;65.81;97712.19;2098973;28;19924;-45
2022/11/05 04:36:42;;;;;;;2.33;0.80;;;;;;;19.47;65.57;97702.00;2097659;28;20050;-46
2022/11/05 04:37:43;;;;;;;1.95;1.00;;;;;;;19.51;65.54;97708.56;2098693;28;20048;-46
2022/11/05 04:38:44;;;;;;;;;;;;;;;19.41;65.56;97709.94;2090896;28;20060;-47
2022/11/05 04:39:45;;;;;;;;;;;;;;;19.35;66.08;97699.28;2093814;28;19928;-49
2022/11/05 04:40:48;;;;;;;1.38;0.75;;;;;;;19.40;65.99;97711.00;2092540;28;19924;-44
2022/11/05 04:41:48;;;;;;;2.75;0.95;;;;;;;19.46;65.85;97708.44;2100317;28;20122;-45
2022/11/05 04:42:50;;;;;;;;;;;;;;;19.37;66.05;97705.28;2101895;28;20417;-45
2022/11/05 04:43:51;;;;;;;2.75;1.15;;;;;;;19.41;66.15;97701.06;2106105;28;20535;-46
2022/11/05 04:44:52;;;;;;;;;;;;;;;19.36;66.23;97704.47;2104554;28;20062;-45
2022/11/05 04:45:53;;;;;;;3.53;1.10;;;;;;;19.40;66.12;97702.94;2106034;28;19935;-44
2022/11/05 04:46:55;;;;;;;;;;;;;;;19.35;66.19;97702.81;2110108;28;20043;-45
2022/11/05 04:47:56;;;;;;;1.98;1.23;;;;;;;19.39;66.27;97704.00;2108460;28;19927;-45
2022/11/05 04:48:57;;;;;;;;;;;;;;;19.34;66.45;97698.47;2108678;28;20143;-45
2022/11/05 04:49:59;;;;;;;;;;;;;;;19.29;66.19;97692.97;2108523;28;19919;-43
2022/11/05 04:51:01;;;;;;;1.48;0.80;;;;;;;19.37;65.85;97695.31;2107668;28;19923;-44
2022/11/05 04:52:02;;;;;;;1.05;0.77;;;;;;;19.42;66.23;97702.72;2106756;28;20043;-45
2022/11/05 04:53:03;;;;;;;;;;;;;;;19.37;66.13;97707.97;2104623;28;20126;-46
2022/11/05 04:54:04;;;;;;;2.50;0.98;;;;;;;19.40;65.85;97697.56;2105113;28;19923;-45
2022/11/05 04:55:06;;;;;;;;;;;;;;;19.35;66.30;97710.06;2109207;28;20044;-46
2022/11/05 04:56:09;;;;;;;1.55;1.38;;;;;;;19.40;66.01;97699.44;2106712;28;19926;-44
2022/11/05 04:57:11;;;;;;;2.67;1.02;;;;;;;19.43;65.73;97709.72;2108329;28;20051;-46
2022/11/05 04:58:11;;;;;;;1.77;1.00;;;;;;;19.46;65.66;97706.56;2104931;28;21248;-45
2022/11/05 04:59:13;;;;;;;;;;;;;;;19.37;66.13;97706.09;2103453;28;20048;-45
2022/11/05 05:00:14;;;;;;;;;;;;;;;19.31;66.39;97707.00;2107859;28;19920;-44
2022/11/05 05:01:18;;;;;;;1.70;0.98;;;;;;;19.36;66.00;97701.78;2108403;28;19920;-46
2022/11/05 05:02:19;;;;;;;1.60;1.13;;;;;;;19.39;65.85;97709.38;2109442;28;20051;-44
2022/11/05 05:03:20;;;;;;;;;;;;;;;19.33;66.19;97702.19;2109334;28;20402;-44
2022/11/05 05:04:21;;;;;;;2.80;1.02;;;;;;;19.37;66.06;97700.72;2108758;28;19923;-45
2022/11/05 05:05:24;;;;;;;3.28;1.60;;;;;;;19.41;65.56;97706.44;2108100;28;20062;-44
2022/11/05 05:06:25;;;;;;;1.10;0.55;;;;;;;19.46;65.55;97703.06;2109265;28;20048;-44
2022/11/05 05:07:27;;;;;;;;;;;;;;;19.36;65.82;97709.00;2108907;28;20421;-44
2022/11/05 05:08:28;;;;;;;1.05;0.73;;;;;;;19.40;65.69;97716.38;2100691;28;19934;-46
2022/11/05 05:09:29;;;;;;;;;;;;;;;19.32;66.10;97714.03;2109059;28;20619;-46
2022/11/05 05:10:31;;;;;;;3.13;0.90;;;;;;;19.37;65.91;97707.97;2109044;28;20373;-46
2022/11/05 05:11:32;;;;;;;1.63;0.90;;;;;;;19.41;65.64;97723.38;2110166;28;20135;-47
2022/11/05 05:12:34;;;;;;;0.98;0.68;;;;;;;19.46;65.45;97719.19;2109657;28;20052;-44
2022/11/05 05:13:36;;;;;;;2.50;1.25;;;;;;;19.46;65.42;97713.81;2109636;27;20048;-46
2022/11/05 05:14:36;;;;;;;2.30;1.10;;;;;;;19.47;65.60;97724.31;2109542;28;20040;-47
2022/11/05 05:15:38;;;;;;;;;;;;;;;19.36;65.77;97720.59;2107723;27;20047;-44
2022/11/05 05:16:39;;;;;;;2.15;0.98;;;;;;;19.40;65.58;97723.63;2107263;28;19928;-46
2022/11/05 05:17:40;;;;;;;;;;;;;;;19.33;65.82;97726.41;2104932;28;20058;-45
2022/11/05 05:18:41;;;;;;;;;;;;;;;19.28;66.14;97738.91;2106684;28;19927;-44
2022/11/05 05:22:31;;;;;;;1.63;0.73;;;;;;;19.37;65.81;97748.28;2099937;28;20063;-46
2022/11/05 05:23:32;;;;;;;2.40;1.42;;;;;;;19.40;65.81;97737.06;2104436;27;20046;-45
2022/11/05 05:24:34;;;;;;;;;;;;;;;19.32;65.79;97735.53;2105833;28;20543;-44
2022/11/05 05:25:35;;;;;;;1.42;1.08;;;;;;;19.36;65.99;97742.09;2108455;28;19924;-44
2022/11/05 05:26:36;;;;;;;;;;;;;;;19.31;65.97;97743.84;2109711;27;20562;-44
2022/11/05 05:27:37;;;;;;;2.63;0.98;;;;;;;19.35;66.04;97745.81;2110113;28;19923;-46
2022/11/05 05:28:39;;;;;;;;;;;;;;;19.29;65.80;97741.38;2109627;28;20406;-46
2022/11/05 05:29:39;;;;;;;;;;;;;;;19.24;66.09;97746.59;2109708;28;19931;-46
2022/11/05 05:30:41;;;;;;;1.50;1.17;;;;;;;19.28;66.09;97742.44;2107534;28;20399;-46
2022/11/05 05:31:42;;;;;;;2.63;1.42;;;;;;;19.35;65.71;97750.38;2109443;28;20074;-44
2022/11/05 05:32:44;;;;;;;1.88;0.80;;;;;;;19.37;65.50;97746.41;2109381;28;20437;-45
2022/11/05 05:33:45;;;;;;;2.53;0.77;;;;;;;19.40;65.47;97756.72;2102103;28;20662;-45
2022/11/05 05:34:47;;;;;;;;;;;;;;;19.33;65.95;97753.28;2107007;28;20039;-44
2022/11/05 05:35:47;;;;;;;2.25;0.95;;;;;;;19.35;65.65;97745.00;2111240;28;19923;-46
2022/11/05 05:36:50;;;;;;;;;;;;;;;19.29;66.17;97752.13;2108852;28;20057;-46
2022/11/05 05:37:54;;;;;;;1.33;0.82;;;;;;;19.34;65.90;97751.44;2105743;28;19919;-45
2022/11/05 05:38:56;;;;;;;1.67;0.70;;;;;;;19.36;65.62;97752.84;2107462;28;20093;-45
2022/11/05 05:39:56;;;;;;;2.22;1.00;;;;;;;19.40;65.60;97756.72;2108729;28;20594;-46
2022/11/05 05:40:59;;;;;;;;;;;;;;;19.32;65.77;97756.22;2110277;27;20052;-45
2022/11/05 05:42:00;;;;;;;1.00;0.70;;;;;;;19.35;65.75;97747.69;2109512;28;19931;-44
2022/11/05 05:43:01;;;;;;;;;;;;;;;19.27;65.83;97748.84;2110062;28;20054;-44
2022/11/05 05:44:04;;;;;;;1.85;0.80;;;;;;;19.33;65.82;97755.16;2109434;28;20393;-46
2022/11/05 05:45:06;;;;;;;3.35;1.02;;;;;;;19.37;65.90;97749.09;2109411;28;20071;-44
2022/11/05 05:46:10;;;;;;;0.88;0.73;;;;;;;19.38;65.57;97750.72;2103416;27;20047;-45
2022/11/05 05:47:13;;;;;;;2.72;1.38;;;;;;;19.40;65.39;97754.03;2103309;28;20142;-45
2022/11/05 05:48:13;;;;;;;2.30;1.02;;;;;;;19.40;65.54;97759.41;2099842;28;20048;-44
2022/11/05 05:49:15;;;;;;;;;;;;;;;19.30;65.87;97764.50;2105791;28;20495;-46
2022/11/05 05:50:16;;;;;;;;;;;;;;;19.25;65.85;97767.09;2108333;28;19920;-44
2022/11/05 05:51:18;;;;;;;0.97;0.80;;;;;;;19.29;65.92;97776.31;2102865;28;20067;-45
2022/11/05 05:52:20;;;;;;;1.17;0.82;;;;;;;19.34;65.53;97776.47;2104483;28;20071;-45
2022/11/05 05:53:22;;;;;;;1.63;0.70;;;;;;;19.36;65.65;97785.13;2105090;28;20043;-47
2022/11/05 05:54:23;;;;;;;1.58;0.60;;;;;;;19.38;65.63;97776.81;2102336;28;20339;-45
2022/11/05 05:55:25;;;;;;;;;;;;;;;19.31;65.88;97784.97;2104087;28;20051;-46